Time;durP1;ratioP1;P1;durP2;ratioP2;P2;SDS_P1;SDS_P2;PMS_P1;PMS_P2;Temp;Humidity;BMP_temperature;BMP_pressure;BME280_temperature;BME280_humidity;BME280_pressure;Samples;Min_cycle;Max_cycle;Signal;HPM_P1;HPM_P2
2023/06/07 00:01:43;;;;;;;12.10;4.80;;;;;;;10.07;100.00;100959.13;105408;1256;64966;-72
2023/06/07 00:04:13;;;;;;;8.30;4.60;;;;;;;10.08;100.00;100959.77;104660;1256;71237;-63
2023/06/07 00:06:40;;;;;;;6.50;4.10;;;;;;;10.09;100.00;100961.76;105043;1256;60210;-63
2023/06/07 00:09:08;;;;;;;8.80;4.50;;;;;;;10.07;100.00;100959.83;105312;1256;61332;-62
2023/06/07 00:11:38;;;;;;;8.70;4.50;;;;;;;10.04;100.00;100962.13;105567;1260;74745;-64
2023/06/07 00:14:05;;;;;;;9.70;4.00;;;;;;;9.98;100.00;100963.56;104913;1259;64746;-63
2023/06/07 00:16:35;;;;;;;7.30;3.80;;;;;;;9.93;100.00;100971.01;105014;1256;73043;-63
2023/06/07 00:19:03;;;;;;;8.40;4.20;;;;;;;9.87;100.00;100969.80;105176;1256;61251;-63
2023/06/07 00:21:30;;;;;;;7.20;3.90;;;;;;;9.80;100.00;100971.70;106164;1257;61240;-68
2023/06/07 00:23:59;;;;;;;7.80;4.20;;;;;;;9.75;100.00;100969.63;104762;1257;73415;-65
2023/06/07 00:26:26;;;;;;;10.40;4.80;;;;;;;9.72;100.00;100966.97;105045;1257;67017;-62
2023/06/07 00:28:53;;;;;;;7.70;3.90;;;;;;;9.70;100.00;100971.14;105475;1257;71400;-65
2023/06/07 00:31:20;;;;;;;8.80;4.20;;;;;;;9.71;100.00;100969.19;105260;1258;61357;-64
2023/06/07 00:33:48;;;;;;;6.00;3.70;;;;;;;9.73;100.00;100969.64;105175;1257;60408;-72
2023/06/07 00:36:15;;;;;;;9.60;3.70;;;;;;;9.74;100.00;100973.23;105085;1257;74103;-66
2023/06/07 00:38:42;;;;;;;7.10;3.70;;;;;;;9.71;100.00;100975.92;105313;1257;65363;-66
2023/06/07 00:41:09;;;;;;;6.80;3.80;;;;;;;9.68;100.00;100973.98;105529;1259;70938;-65
2023/06/07 00:43:37;;;;;;;6.00;3.80;;;;;;;9.66;100.00;100972.98;104995;1257;61344;-64
2023/06/07 00:46:05;;;;;;;7.30;3.70;;;;;;;9.62;100.00;100973.56;104937;1261;61281;-73
2023/06/07 00:48:32;;;;;;;9.20;3.50;;;;;;;9.59;100.00;100976.00;105338;1258;73670;-64
2023/06/07 00:51:01;;;;;;;7.50;3.60;;;;;;;9.57;100.00;100979.17;105135;1260;66224;-66
2023/06/07 00:53:28;;;;;;;5.90;3.60;;;;;;;9.56;100.00;100974.45;105149;1259;71340;-63
2023/06/07 00:55:55;;;;;;;6.80;3.70;;;;;;;9.56;100.00;100981.16;105148;1257;439519;-72
2023/06/07 00:58:21;;;;;;;10.40;3.70;;;;;;;9.54;100.00;100980.01;105143;1262;61264;-64
2023/06/07 01:00:48;;;;;;;6.30;4.30;;;;;;;9.49;100.00;100982.73;105072;1257;73362;-63
2023/06/07 01:03:16;;;;;;;6.00;3.50;;;;;;;9.43;100.00;100981.23;104982;1257;65899;-64
2023/06/07 01:05:44;;;;;;;8.60;5.30;;;;;;;9.38;100.00;100983.31;104959;1261;71241;-63
2023/06/07 01:08:11;;;;;;;5.80;3.50;;;;;;;9.34;100.00;100983.71;105671;1257;61228;-65
2023/06/07 01:10:39;;;;;;;8.00;3.80;;;;;;;9.32;100.00;100984.82;104867;1259;61344;-64
2023/06/07 01:13:08;;;;;;;7.90;3.90;;;;;;;9.32;100.00;100987.23;105168;1262;74651;-64
2023/06/07 01:15:37;;;;;;;7.40;3.90;;;;;;;9.35;100.00;100988.02;105030;1262;65997;-63
2023/06/07 01:18:09;;;;;;;9.00;3.50;;;;;;;9.38;100.00;100990.10;104918;1261;73061;-63
2023/06/07 01:20:40;;;;;;;8.60;4.00;;;;;;;9.41;100.00;100993.83;105004;1261;61242;-64
2023/06/07 01:23:07;;;;;;;7.90;3.70;;;;;;;9.42;100.00;100990.87;104912;1258;61338;-64
2023/06/07 01:25:34;;;;;;;9.10;3.70;;;;;;;9.46;100.00;100994.13;105320;1257;72797;-72
2023/06/07 01:28:01;;;;;;;8.10;4.00;;;;;;;9.46;100.00;100993.38;104959;1257;66430;-64
2023/06/07 01:30:31;;;;;;;6.90;4.00;;;;;;;9.47;100.00;100992.83;105343;1258;72722;-63
2023/06/07 01:32:59;;;;;;;8.50;4.10;;;;;;;9.46;100.00;100995.20;105055;1258;61312;-62
2023/06/07 01:35:28;;;;;;;5.20;3.10;;;;;;;9.42;100.00;100995.39;104988;1257;61245;-71
2023/06/07 01:37:56;;;;;;;6.00;2.90;;;;;;;9.39;100.00;100996.61;104910;1257;75642;-63
2023/06/07 01:40:23;;;;;;;6.80;3.80;;;;;;;9.36;100.00;101001.55;104965;1264;65706;-64
2023/06/07 01:42:50;;;;;;;6.40;3.60;;;;;;;9.35;100.00;101001.02;105214;1258;71286;-65
2023/06/07 01:45:17;;;;;;;7.70;4.00;;;;;;;9.35;100.00;100997.20;105235;1257;61665;-70
2023/06/07 01:47:44;;;;;;;10.60;3.90;;;;;;;9.36;100.00;100994.66;105089;1261;61241;-67
2023/06/07 01:50:19;;;;;;;6.10;3.40;;;;;;;9.38;100.00;100995.80;105026;1261;74521;-66
2023/06/07 01:52:45;;;;;;;8.00;3.40;;;;;;;9.43;100.00;101000.02;104940;1264;67392;-65
2023/06/07 01:55:13;;;;;;;5.70;3.40;;;;;;;9.53;100.00;101005.94;106154;1257;72439;-65
2023/06/07 01:57:56;;;;;;;7.10;3.10;;;;;;;9.75;100.00;101010.05;104807;1258;62553;-63
2023/06/07 02:00:56;;;;;;;4.50;3.00;;;;;;;10.19;100.00;101008.10;104846;1259;61261;-62
2023/06/07 02:03:53;;;;;;;5.20;3.10;;;;;;;10.81;100.00;101003.39;105020;1259;74662;-64
2023/06/07 02:06:32;;;;;;;5.00;2.70;;;;;;;11.51;100.00;101004.58;105558;1259;67760;-63
2023/06/07 02:09:06;;;;;;;5.70;3.00;;;;;;;12.15;100.00;100998.38;105081;1261;71412;-62
2023/06/07 02:11:32;;;;;;;4.80;2.60;;;;;;;12.84;100.00;101000.45;104921;1257;62380;-62
2023/06/07 02:14:01;;;;;;;4.10;2.40;;;;;;;13.47;100.00;100997.62;105131;1264;61290;-68
2023/06/07 02:16:32;;;;;;;4.90;2.30;;;;;;;14.12;100.00;100990.75;104930;1257;73502;-63
2023/06/07 02:18:59;;;;;;;4.80;2.30;;;;;;;14.78;100.00;100984.87;105341;1257;67249;-62
2023/06/07 02:21:26;;;;;;;4.20;2.10;;;;;;;15.42;100.00;100974.90;105104;1262;72557;-61
2023/06/07 02:23:53;;;;;;;4.20;2.40;;;;;;;16.02;100.00;100966.45;105422;1258;61261;-67
2023/06/07 02:26:20;;;;;;;4.90;2.30;;;;;;;16.61;100.00;100954.07;105203;1260;61226;-63
2023/06/07 02:28:47;;;;;;;3.90;2.10;;;;;;;17.08;100.00;100942.17;104936;1262;74911;-62
2023/06/07 02:31:14;;;;;;;4.90;2.40;;;;;;;17.40;100.00;100934.89;104967;1257;67228;-63
2023/06/07 02:33:41;;;;;;;4.80;2.30;;;;;;;17.51;100.00;100930.41;104958;1257;72702;-64
2023/06/07 02:36:08;;;;;;;7.40;2.60;;;;;;;17.45;100.00;100927.27;105397;1257;61595;-68
2023/06/07 02:38:36;;;;;;;3.80;2.10;;;;;;;17.49;100.00;100924.54;105003;1258;61334;-62
2023/06/07 02:41:03;;;;;;;3.30;1.80;;;;;;;17.84;100.00;100918.39;105049;1259;74598;-63
2023/06/07 02:43:30;;;;;;;5.20;2.20;;;;;;;18.41;100.00;100915.67;104993;1258;65830;-62
2023/06/07 02:45:57;;;;;;;4.70;1.90;;;;;;;18.86;100.00;100915.78;104867;1259;72598;-61
2023/06/07 02:48:24;;;;;;;5.70;1.80;;;;;;;19.11;100.00;100912.61;105734;1256;61394;-68
2023/06/07 02:50:51;;;;;;;9.50;2.40;;;;;;;19.51;100.00;100910.34;104945;1264;61280;-64
2023/06/07 02:53:19;;;;;;;4.30;1.80;;;;;;;19.92;100.00;100911.04;105057;1257;74788;-61
2023/06/07 02:55:46;;;;;;;4.60;1.90;;;;;;;20.32;100.00;100909.90;104880;1256;66250;-61
2023/06/07 02:58:14;;;;;;;3.60;1.70;;;;;;;20.81;100.00;100910.83;105251;1256;72684;-62
2023/06/07 03:00:41;;;;;;;3.90;1.90;;;;;;;21.33;100.00;100914.97;104929;1257;61484;-61
2023/06/07 03:03:11;;;;;;;3.90;1.80;;;;;;;21.71;100.00;100917.48;105029;1256;61237;-62
2023/06/07 03:05:48;;;;;;;3.90;1.80;;;;;;;22.06;100.00;100921.66;104830;1256;73510;-64
2023/06/07 03:08:16;;;;;;;4.00;1.80;;;;;;;22.55;100.00;100920.27;105150;1256;67253;-71
2023/06/07 03:10:43;;;;;;;3.00;1.90;;;;;;;23.04;100.00;100917.01;105251;1256;72740;-62
2023/06/07 03:13:12;;;;;;;4.60;2.40;;;;;;;23.39;100.00;100914.52;104933;1256;61443;-63
2023/06/07 03:15:40;;;;;;;4.50;2.30;;;;;;;23.62;100.00;100913.99;104956;1259;61204;-61
2023/06/07 03:18:08;;;;;;;5.10;2.10;;;;;;;23.77;100.00;100910.37;105155;1257;75086;-62
2023/06/07 03:20:37;;;;;;;5.80;2.30;;;;;;;23.99;100.00;100912.48;105204;1257;67692;-62
2023/06/07 03:23:09;;;;;;;5.00;2.40;;;;;;;24.32;100.00;100911.73;104963;1258;71840;-67
2023/06/07 03:25:36;;;;;;;4.00;2.40;;;;;;;24.77;98.31;100907.27;105145;1261;61209;-63
2023/06/07 03:28:05;;;;;;;3.70;2.40;;;;;;;25.33;91.08;100903.56;105191;1256;61223;-63
2023/06/07 03:30:37;;;;;;;4.60;2.00;;;;;;;25.91;82.26;100905.02;104953;1259;73945;-64
2023/06/07 03:33:04;;;;;;;3.60;2.30;;;;;;;26.51;75.49;100906.87;104571;1263;67259;-64
2023/06/07 03:35:32;;;;;;;6.90;2.40;;;;;;;27.21;67.35;100902.60;105049;1256;72736;-64
2023/06/07 03:37:59;;;;;;;5.80;2.40;;;;;;;27.83;57.81;100899.66;105025;1263;61228;-64
2023/06/07 03:40:27;;;;;;;5.10;2.20;;;;;;;28.33;52.84;100899.80;105060;1264;59644;-67
2023/06/07 03:42:58;;;;;;;3.90;2.30;;;;;;;28.80;47.81;100895.33;104797;1256;73784;-70
2023/06/07 03:45:26;;;;;;;3.70;2.30;;;;;;;29.16;45.28;100899.02;104898;1257;67238;-63
2023/06/07 03:47:58;;;;;;;3.30;2.30;;;;;;;29.53;42.73;100897.68;104788;1260;72752;-65
2023/06/07 03:50:25;;;;;;;3.60;2.00;;;;;;;29.81;41.12;100897.70;104686;1259;61425;-69
2023/06/07 03:52:52;;;;;;;4.70;2.40;;;;;;;30.10;40.48;100899.64;105079;1263;59853;-65
2023/06/07 03:55:20;;;;;;;6.10;2.70;;;;;;;30.34;39.60;100898.64;105064;1257;73926;-63
2023/06/07 03:57:47;;;;;;;4.90;2.30;;;;;;;30.60;38.70;100898.97;105883;1256;67059;-64
2023/06/07 04:00:17;;;;;;;4.60;2.40;;;;;;;30.77;37.82;100899.69;105203;1262;71191;-64
2023/06/07 04:02:47;;;;;;;7.60;2.30;;;;;;;30.96;37.57;100896.06;105016;1257;61289;-64
2023/06/07 04:05:17;;;;;;;4.70;2.10;;;;;;;31.22;36.28;100895.51;105029;1257;61334;-65
2023/06/07 04:07:46;;;;;;;5.20;2.60;;;;;;;31.46;35.26;100891.98;104996;1262;74657;-65
2023/06/07 04:10:14;;;;;;;3.30;2.00;;;;;;;31.73;34.39;100888.95;104975;1257;68464;-65
2023/06/07 04:12:43;;;;;;;5.10;1.90;;;;;;;31.93;33.11;100892.50;105310;1257;73298;-64
2023/06/07 04:15:10;;;;;;;3.70;2.50;;;;;;;32.08;33.04;100893.55;104727;1257;61190;-65
2023/06/07 04:17:39;;;;;;;5.30;2.20;;;;;;;32.25;32.28;100891.92;105132;1256;61942;-63
2023/06/07 04:20:07;;;;;;;4.30;2.20;;;;;;;32.41;32.06;100892.61;105060;1259;65833;-64
2023/06/07 04:22:35;;;;;;;5.20;2.40;;;;;;;32.64;31.55;100892.39;105119;1259;65842;-62
2023/06/07 04:25:03;;;;;;;4.00;1.80;;;;;;;32.93;31.33;100894.82;105406;1257;73192;-69
2023/06/07 04:27:31;;;;;;;5.50;1.90;;;;;;;33.32;30.60;100895.52;105142;1262;61302;-66
2023/06/07 04:30:01;;;;;;;7.30;2.20;;;;;;;33.64;29.72;100892.67;105208;1261;61284;-65
2023/06/07 04:32:33;;;;;;;3.70;2.10;;;;;;;33.87;29.14;100893.98;105033;1259;74751;-68
2023/06/07 04:35:00;;;;;;;;;;;;;;;34.08;28.82;100889.75;105378;1260;67237;-67
2023/06/07 04:37:28;;;;;;;3.10;1.70;;;;;;;34.20;28.44;100889.76;105059;1262;64337;-64
2023/06/07 04:39:55;;;;;;;8.60;2.60;;;;;;;34.31;28.57;100888.20;105037;1257;61247;-64
2023/06/07 04:42:23;;;;;;;3.70;2.20;;;;;;;34.56;28.25;100892.73;105282;1262;61327;-65
2023/06/07 04:44:52;;;;;;;5.50;2.00;;;;;;;34.79;27.92;100892.34;105076;1259;66429;-66
2023/06/07 04:47:24;;;;;;;3.80;2.20;;;;;;;35.14;27.54;100888.90;105143;1260;65785;-68
2023/06/07 04:49:53;;;;;;;3.30;2.00;;;;;;;35.54;27.01;100889.05;105267;1256;63689;-68
2023/06/07 04:52:20;;;;;;;4.00;2.00;;;;;;;35.84;26.32;100888.94;105433;1256;61235;-68
2023/06/07 04:54:56;;;;;;;3.40;2.60;;;;;;;35.97;25.83;100888.36;105225;1257;61285;-73
2023/06/07 04:57:25;;;;;;;5.40;2.30;;;;;;;36.05;25.35;100887.06;105070;1257;66593;-69
2023/06/07 04:59:54;;;;;;;4.00;2.60;;;;;;;36.12;24.88;100886.80;105135;1260;60792;-69
2023/06/07 05:02:25;;;;;;;7.60;2.90;;;;;;;36.21;24.67;100884.05;105039;1256;64101;-70
2023/06/07 05:04:53;;;;;;;5.60;3.20;;;;;;;36.42;23.04;100882.68;105528;1260;61317;-71
2023/06/07 05:07:20;;;;;;;4.30;2.70;;;;;;;36.56;22.56;100883.27;105003;1261;61522;-68
2023/06/07 05:09:49;;;;;;;5.60;2.70;;;;;;;36.80;22.69;100885.66;105151;1257;65875;-67
2023/06/07 05:12:17;;;;;;;4.70;2.20;;;;;;;37.18;22.24;100885.85;105262;1262;61248;-67
2023/06/07 05:14:44;;;;;;;5.40;2.90;;;;;;;37.41;21.78;100884.61;105253;1257;64653;-71
2023/06/07 05:17:16;;;;;;;5.80;4.10;;;;;;;37.57;21.55;100882.52;105096;1257;61269;-68
2023/06/07 05:19:43;;;;;;;3.80;2.70;;;;;;;37.69;21.10;100880.34;105176;1260;61227;-68
2023/06/07 05:22:10;;;;;;;4.20;2.30;;;;;;;37.77;20.73;100878.67;105119;1260;64878;-69
2023/06/07 05:24:37;;;;;;;3.70;2.40;;;;;;;37.89;20.98;100873.21;105386;1255;61216;-72
2023/06/07 05:27:06;;;;;;;3.60;2.40;;;;;;;38.17;21.10;100871.81;104967;1257;64080;-69
2023/06/07 05:29:33;;;;;;;3.30;2.40;;;;;;;38.50;20.68;100869.27;104994;1257;61856;-68
2023/06/07 05:32:01;;;;;;;6.50;2.80;;;;;;;38.75;20.59;100868.09;105249;1260;61116;-68
2023/06/07 05:34:28;;;;;;;5.70;2.90;;;;;;;38.93;20.50;100870.64;105268;1262;65811;-72
2023/06/07 05:36:56;;;;;;;4.30;2.40;;;;;;;39.01;20.43;100868.75;105086;1262;61125;-69
2023/06/07 05:39:26;;;;;;;;;;;;;;;39.08;20.36;100864.36;104942;1259;63922;-69
2023/06/07 05:41:53;;;;;;;5.00;3.50;;;;;;;39.11;20.73;100863.39;105133;1261;61213;-68
2023/06/07 05:44:20;;;;;;;3.20;2.50;;;;;;;39.09;20.68;100862.98;105332;1259;61360;-71
2023/06/07 05:46:47;;;;;;;5.30;2.90;;;;;;;39.30;20.24;100860.87;104922;1260;75234;-68
2023/06/07 05:49:15;;;;;;;4.30;3.50;;;;;;;39.42;19.79;100863.89;105031;1264;61328;-67
2023/06/07 05:51:42;;;;;;;6.20;5.30;;;;;;;39.48;19.37;100864.22;104960;1262;64094;-67
2023/06/07 05:54:09;;;;;;;6.80;4.20;;;;;;;39.60;18.82;100860.73;105552;1259;61296;-69
2023/06/07 05:56:36;;;;;;;6.60;3.80;;;;;;;39.67;18.59;100857.89;105153;1260;61231;-71
2023/06/07 05:59:03;;;;;;;4.20;3.10;;;;;;;39.61;18.40;100854.13;105002;1257;66306;-68
2023/06/07 06:01:32;;;;;;;7.10;3.00;;;;;;;39.59;18.20;100853.23;105071;1256;61298;-68
2023/06/07 06:03:59;;;;;;;4.30;2.90;;;;;;;39.55;17.81;100847.02;105288;1256;72531;-69
2023/06/07 06:06:26;;;;;;;4.60;3.20;;;;;;;39.68;17.82;100851.13;105281;1256;61252;-68
2023/06/07 06:08:54;;;;;;;3.90;3.00;;;;;;;39.92;17.45;100849.16;105072;1257;61251;-69
2023/06/07 06:11:21;;;;;;;3.20;2.70;;;;;;;40.10;17.12;100845.52;104912;1260;65856;-69
2023/06/07 06:13:48;;;;;;;4.00;2.70;;;;;;;40.12;16.75;100847.18;105170;1256;61339;-69
2023/06/07 06:16:15;;;;;;;7.60;3.10;;;;;;;39.91;16.46;100847.27;105426;1261;64043;-70
2023/06/07 06:18:43;;;;;;;3.90;3.10;;;;;;;39.75;16.51;100850.86;105497;1260;61218;-69
2023/06/07 06:21:10;;;;;;;3.90;2.60;;;;;;;39.65;16.14;100849.92;105083;1257;61356;-69
2023/06/07 06:23:37;;;;;;;4.20;2.70;;;;;;;39.50;15.81;100850.45;105133;1257;73859;-69
2023/06/07 06:26:04;;;;;;;3.10;2.20;;;;;;;39.35;15.82;100847.32;105208;1257;66150;-69
2023/06/07 06:28:31;;;;;;;4.10;2.70;;;;;;;39.38;15.54;100843.55;104902;1260;64146;-69
2023/06/07 06:31:01;;;;;;;3.00;2.40;;;;;;;39.54;15.72;100844.58;105203;1257;61254;-68
2023/06/07 06:33:29;;;;;;;3.80;2.40;;;;;;;39.53;15.66;100846.20;105067;1260;61207;-68
2023/06/07 06:35:57;;;;;;;3.60;2.70;;;;;;;39.52;15.65;100848.91;105065;1260;66153;-68
2023/06/07 06:38:24;;;;;;;3.80;3.00;;;;;;;39.61;15.60;100847.17;105116;1257;61126;-68
2023/06/07 06:40:51;;;;;;;4.20;2.80;;;;;;;39.70;15.49;100848.13;105321;1256;62649;-70
2023/06/07 06:43:21;;;;;;;3.00;2.30;;;;;;;39.67;15.13;100847.12;105376;1260;61157;-69
2023/06/07 06:45:50;;;;;;;3.80;2.70;;;;;;;39.50;15.31;100849.52;105120;1258;61272;-71
2023/06/07 06:48:17;;;;;;;5.50;2.80;;;;;;;39.51;15.09;100847.83;105122;1257;65987;-70
2023/06/07 06:50:46;;;;;;;4.10;2.90;;;;;;;39.44;14.96;100851.29;105614;1256;61277;-68
2023/06/07 06:53:14;;;;;;;;;;;;;;;39.22;14.93;100850.81;105697;1256;62652;-71
2023/06/07 06:55:41;;;;;;;8.30;3.40;;;;;;;39.00;14.63;100850.83;106328;1260;61144;-70
2023/06/07 06:58:08;;;;;;;3.80;2.80;;;;;;;38.83;15.13;100851.67;105883;1259;61271;-69
2023/06/07 07:00:38;;;;;;;3.20;2.80;;;;;;;38.83;15.46;100849.42;106049;1260;65934;-69
2023/06/07 07:03:05;;;;;;;4.80;3.40;;;;;;;38.79;15.04;100852.50;106156;1261;61239;-72
2023/06/07 07:05:32;;;;;;;4.10;3.10;;;;;;;38.73;15.07;100855.27;106327;1257;62768;-72
2023/06/07 07:08:01;;;;;;;5.50;3.70;;;;;;;38.77;15.05;100852.77;106076;1257;61155;-70
2023/06/07 07:10:28;;;;;;;5.00;3.50;;;;;;;38.76;15.09;100854.23;105823;1256;61115;-70
2023/06/07 07:12:55;;;;;;;4.90;3.30;;;;;;;38.81;15.36;100853.34;106063;1261;67592;-71
2023/06/07 07:15:22;;;;;;;5.10;2.50;;;;;;;39.01;15.57;100851.77;105771;1261;61363;-68
2023/06/07 07:17:50;;;;;;;4.30;2.90;;;;;;;39.19;15.58;100848.58;106434;1260;64077;-72
2023/06/07 07:20:17;;;;;;;5.00;3.60;;;;;;;39.38;15.35;100845.80;105055;1257;61263;-68
2023/06/07 07:22:46;;;;;;;4.80;2.60;;;;;;;39.56;14.94;100844.38;105510;1262;61160;-72
2023/06/07 07:25:13;;;;;;;5.30;2.70;;;;;;;39.65;14.96;100843.27;105140;1261;67429;-71
2023/06/07 07:27:41;;;;;;;3.90;2.70;;;;;;;39.60;14.96;100840.70;105491;1257;61475;-69
2023/06/07 07:30:11;;;;;;;6.00;3.10;;;;;;;39.35;14.85;100845.59;105516;1256;71455;-69
2023/06/07 07:32:38;;;;;;;5.30;2.70;;;;;;;39.17;15.26;100844.41;105449;1260;61221;-70
2023/06/07 07:35:06;;;;;;;4.10;2.80;;;;;;;39.02;15.79;100848.20;104833;1256;61424;-70
2023/06/07 07:37:33;;;;;;;3.20;2.20;;;;;;;38.90;16.17;100848.45;105105;1256;66096;-67
2023/06/07 07:40:00;;;;;;;3.40;2.00;;;;;;;38.85;16.35;100848.43;105569;1260;61244;-72
2023/06/07 07:42:27;;;;;;;4.50;2.60;;;;;;;38.85;16.13;100844.69;105436;1260;64111;-71
2023/06/07 07:44:55;;;;;;;4.20;2.70;;;;;;;38.74;16.35;100844.55;105087;1267;61483;-68
2023/06/07 08:10:17;;;;;;;3.40;2.00;;;;;;;38.63;16.54;100839.53;103174;1282;604324;-66
2023/06/07 08:12:45;;;;;;;3.50;2.00;;;;;;;39.03;16.18;100841.44;104521;1271;127132;-68
2023/06/07 08:15:13;;;;;;;4.10;1.80;;;;;;;38.97;16.04;100842.27;104989;1265;59349;-68
2023/06/07 08:17:40;;;;;;;2.90;1.70;;;;;;;38.72;16.37;100842.56;104458;1266;62173;-67
2023/06/07 08:20:09;;;;;;;3.20;2.00;;;;;;;38.63;16.43;100842.00;104787;1270;59367;-68
2023/06/07 08:22:37;;;;;;;3.10;2.00;;;;;;;38.58;16.67;100840.11;105108;1263;63279;-68
2023/06/07 08:25:06;;;;;;;3.90;2.00;;;;;;;38.58;16.85;100839.71;104853;1263;59308;-66
2023/06/07 08:27:35;;;;;;;4.60;2.60;;;;;;;38.53;16.32;100834.01;105035;1265;59379;-69
2023/06/07 08:30:04;;;;;;;3.80;1.80;;;;;;;37.75;16.44;100839.95;105159;1262;63408;-67
2023/06/07 08:32:32;;;;;;;3.40;1.90;;;;;;;36.86;16.67;100838.70;104951;1263;59352;-68
2023/06/07 08:35:00;;;;;;;4.20;2.00;;;;;;;36.20;17.13;100844.04;105386;1257;65247;-68
2023/06/07 08:37:28;;;;;;;3.70;2.20;;;;;;;35.90;17.16;100841.83;105192;1253;61494;-68
2023/06/07 08:39:55;;;;;;;3.90;2.50;;;;;;;35.76;17.53;100835.75;105562;1259;59261;-66
2023/06/07 08:42:25;;;;;;;4.40;2.20;;;;;;;35.45;17.94;100839.83;105757;1258;66078;-68
2023/06/07 08:44:53;;;;;;;5.20;3.10;;;;;;;35.15;18.05;100845.50;105709;1259;60649;-67
2023/06/07 08:47:22;;;;;;;5.10;2.10;;;;;;;35.06;18.28;100851.53;105639;1257;63846;-67
2023/06/07 08:49:50;;;;;;;4.00;2.10;;;;;;;34.98;18.53;100848.52;105338;1263;59756;-67
2023/06/07 08:52:17;;;;;;;3.30;2.10;;;;;;;34.65;18.68;100848.41;105566;1253;59735;-67
2023/06/07 08:54:46;;;;;;;5.30;3.70;;;;;;;34.29;18.72;100847.83;105247;1254;63573;-67
2023/06/07 08:57:19;;;;;;;8.70;5.30;;;;;;;34.00;18.95;100849.85;105798;1260;59579;-67
2023/06/07 08:59:50;;;;;;;4.30;3.10;;;;;;;33.65;19.19;100848.62;105484;1259;64027;-66
2023/06/07 09:02:19;;;;;;;;;;;;;;;33.34;19.66;100848.98;105487;1258;59672;-66
2023/06/07 09:04:47;;;;;;;3.50;2.20;;;;;;;32.92;19.96;100847.34;105205;1256;59508;-67
2023/06/07 09:07:15;;;;;;;3.10;2.30;;;;;;;32.46;20.22;100851.79;105816;1254;73145;-67
2023/06/07 09:09:45;;;;;;;4.30;2.10;;;;;;;32.07;20.25;100851.01;105208;1257;66120;-68
2023/06/07 09:12:13;;;;;;;7.10;2.80;;;;;;;31.60;21.24;100848.11;105283;1255;73519;-68
2023/06/07 09:14:41;;;;;;;3.70;2.50;;;;;;;31.24;21.94;100850.20;105404;1258;59669;-69
2023/06/07 09:17:09;;;;;;;8.10;2.50;;;;;;;31.05;22.45;100853.71;105670;1254;60244;-67
2023/06/07 09:19:39;;;;;;;7.40;2.60;;;;;;;31.10;22.28;100854.09;105700;1258;73087;-68
2023/06/07 09:22:09;;;;;;;3.70;2.10;;;;;;;31.36;22.02;100846.41;105730;1258;67272;-69
2023/06/07 09:24:37;;;;;;;2.80;2.10;;;;;;;31.61;21.58;100846.91;105443;1258;71590;-69
2023/06/07 09:27:05;;;;;;;2.70;1.80;;;;;;;31.68;21.30;100849.29;105712;1265;59654;-66
2023/06/07 09:29:42;;;;;;;4.20;2.10;;;;;;;31.62;21.39;100849.14;105374;1258;59440;-67
2023/06/07 09:32:25;;;;;;;3.80;2.30;;;;;;;31.67;21.43;100846.37;105181;1259;73160;-67
2023/06/07 09:34:53;;;;;;;3.30;2.10;;;;;;;31.83;21.89;100844.92;105493;1256;65784;-68
2023/06/07 09:37:21;;;;;;;6.30;2.00;;;;;;;31.97;22.11;100842.93;105022;1260;72426;-67
2023/06/07 09:39:52;;;;;;;4.00;2.30;;;;;;;32.21;22.13;100843.40;105659;1259;59955;-68
2023/06/07 09:42:20;;;;;;;5.50;2.30;;;;;;;32.41;21.78;100839.80;105371;1253;60059;-67
2023/06/07 09:44:49;;;;;;;4.00;2.20;;;;;;;32.35;21.20;100842.23;105923;1257;73122;-67
2023/06/07 09:47:22;;;;;;;3.50;2.10;;;;;;;32.13;21.71;100837.80;105259;1253;67489;-67
2023/06/07 09:49:54;;;;;;;4.20;2.20;;;;;;;31.98;21.96;100835.95;105182;1259;71398;-68
2023/06/07 09:52:23;;;;;;;4.60;2.00;;;;;;;32.02;21.28;100836.21;105131;1255;59739;-68
2023/06/07 09:54:51;;;;;;;2.90;1.80;;;;;;;32.22;21.31;100836.61;105339;1256;59974;-68
2023/06/07 09:57:25;;;;;;;3.70;2.20;;;;;;;32.53;21.13;100830.73;105500;1256;73097;-68
2023/06/07 10:00:00;;;;;;;3.50;2.00;;;;;;;32.97;21.48;100825.81;105195;1261;67072;-67
2023/06/07 10:02:28;;;;;;;2.30;1.70;;;;;;;33.24;21.42;100831.27;105200;1259;72734;-67
2023/06/07 10:04:57;;;;;;;5.40;2.30;;;;;;;33.34;20.71;100826.32;105568;1259;60153;-68
2023/06/07 10:07:32;;;;;;;3.00;2.00;;;;;;;33.47;20.58;100822.45;105403;1259;60245;-66
2023/06/07 10:10:00;;;;;;;5.70;2.30;;;;;;;33.58;20.31;100821.52;105620;1255;73070;-69
2023/06/07 10:12:29;;;;;;;5.40;3.40;;;;;;;33.35;20.59;100820.72;105818;1260;66008;-67
2023/06/07 10:14:59;;;;;;;3.50;2.60;;;;;;;33.02;20.84;100826.31;105473;1253;62541;-67
2023/06/07 10:18:15;;;;;;;3.70;2.20;;;;;;;32.59;20.28;100824.97;105583;1254;60152;-68
2023/06/07 10:20:57;;;;;;;4.90;2.90;;;;;;;32.22;21.55;100822.20;105597;1260;59634;-68
2023/06/07 10:23:39;;;;;;;4.00;2.50;;;;;;;31.83;21.80;100821.83;105496;1259;73451;-68
2023/06/07 10:26:17;;;;;;;3.40;2.20;;;;;;;31.36;21.92;100821.80;105516;1258;66906;-68
2023/06/07 10:29:07;;;;;;;3.40;2.00;;;;;;;31.09;22.34;100821.65;105574;1269;72699;-67
2023/06/07 10:31:48;;;;;;;5.40;2.20;;;;;;;30.78;22.42;100824.99;105106;1259;60153;-67
2023/06/07 10:34:15;;;;;;;;;;;;;;;30.49;23.27;100819.99;105566;1259;60036;-68
2023/06/07 10:36:43;;;;;;;4.60;2.20;;;;;;;30.38;23.64;100819.06;105658;1258;73548;-68
2023/06/07 10:39:11;;;;;;;3.90;2.00;;;;;;;30.20;23.47;100820.04;105777;1259;65646;-68
2023/06/07 10:41:39;;;;;;;3.90;2.10;;;;;;;29.91;24.18;100821.23;105327;1258;72638;-68
2023/06/07 10:44:07;;;;;;;2.50;1.90;;;;;;;29.56;24.89;100825.48;105663;1259;60182;-69
2023/06/07 10:46:35;;;;;;;2.80;1.70;;;;;;;29.30;25.39;100822.31;105485;1258;59817;-68
2023/06/07 10:55:26;;;;;;;3.60;1.90;;;;;;;29.56;26.25;100817.79;102314;1290;600905;-67
2023/06/07 10:57:55;;;;;;;4.10;2.20;;;;;;;29.93;24.65;100816.67;105083;1264;59359;-67
2023/06/07 11:00:34;;;;;;;3.70;2.30;;;;;;;30.21;24.06;100814.85;104819;1263;60575;-68
2023/06/07 11:03:04;;;;;;;3.40;2.10;;;;;;;30.40;23.56;100811.33;104940;1266;70973;-68
2023/06/07 11:05:51;;;;;;;3.70;2.20;;;;;;;30.57;24.13;100810.18;105251;1268;66921;-68
2023/06/07 11:08:30;;;;;;;5.30;2.60;;;;;;;30.80;23.26;100811.63;104852;1269;203368;-70
2023/06/07 11:11:00;;;;;;;4.30;2.20;;;;;;;31.04;22.96;100806.80;104844;1263;59336;-68
2023/06/07 11:13:44;;;;;;;;;;;;;;;31.41;22.86;100801.08;104960;1261;59997;-68
2023/06/07 11:16:36;;;;;;;3.10;1.90;;;;;;;32.03;21.72;100802.65;104916;1264;71912;-67
2023/06/07 11:19:13;;;;;;;3.40;2.00;;;;;;;32.22;21.24;100801.45;104491;1262;65671;-68
2023/06/07 11:22:00;;;;;;;4.60;2.50;;;;;;;32.15;21.38;100795.91;104911;1264;72696;-68
2023/06/07 11:24:28;;;;;;;3.60;2.30;;;;;;;32.22;20.66;100791.35;104871;1266;60765;-68
2023/06/07 11:26:56;;;;;;;3.50;2.10;;;;;;;32.41;20.96;100788.44;104931;1266;59592;-69
2023/06/07 11:29:24;;;;;;;3.50;2.30;;;;;;;32.69;21.03;100785.69;105223;1261;71831;-67
2023/06/07 11:32:00;;;;;;;3.20;2.40;;;;;;;32.87;20.58;100785.36;105023;1264;66943;-68
2023/06/07 11:34:33;;;;;;;2.70;2.00;;;;;;;32.94;20.66;100783.69;105282;1260;73398;-68
2023/06/07 11:37:11;;;;;;;3.20;2.30;;;;;;;32.95;20.01;100779.27;105424;1257;60066;-67
2023/06/07 11:39:39;;;;;;;5.00;2.30;;;;;;;32.77;20.09;100774.92;105234;1260;59524;-68
2023/06/07 11:42:07;;;;;;;3.90;2.70;;;;;;;32.89;21.02;100773.90;105366;1260;73572;-66
2023/06/07 11:44:34;;;;;;;5.10;2.20;;;;;;;33.30;20.84;100771.48;105273;1260;65636;-66
2023/06/07 11:47:05;;;;;;;2.80;2.00;;;;;;;33.53;20.24;100770.55;105471;1260;62604;-66
2023/06/07 11:49:35;;;;;;;2.90;2.00;;;;;;;33.39;19.54;100770.75;105321;1257;61018;-67
2023/06/07 11:52:03;;;;;;;4.50;2.60;;;;;;;32.97;19.28;100767.01;105334;1257;59720;-67
2023/06/07 11:54:30;;;;;;;5.10;2.40;;;;;;;32.64;20.07;100764.02;105336;1257;73095;-68
2023/06/07 11:56:58;;;;;;;3.50;2.20;;;;;;;32.61;20.45;100760.69;105297;1257;66900;-67